createdAt,value
2024-03-02T00:06:29.460Z,8.4
2024-03-02T00:16:29.674Z,8.5
2024-03-02T00:26:29.868Z,8.6
2024-03-02T00:36:30.141Z,8.6
2024-03-02T00:56:30.465Z,8.8
2024-03-02T01:06:30.663Z,9
2024-03-02T01:16:30.886Z,9.2
2024-03-02T01:26:31.074Z,9.5
2024-03-02T01:36:31.335Z,9.6
2024-03-02T01:46:31.484Z,9.8
2024-03-02T01:56:31.670Z,9.8
2024-03-02T02:06:31.898Z,9.9
2024-03-02T02:16:32.102Z,10
2024-03-02T02:26:32.282Z,10
2024-03-02T02:36:32.496Z,10
2024-03-02T02:46:32.680Z,10
2024-03-02T02:56:32.881Z,10
2024-03-02T03:06:33.091Z,10
2024-03-02T03:16:33.286Z,9.9
2024-03-02T03:26:33.529Z,9.8
2024-03-02T03:36:33.757Z,9.8
2024-03-02T03:46:33.891Z,9.8
2024-03-02T03:56:34.139Z,9.7
2024-03-02T04:06:34.316Z,9.7
2024-03-02T04:16:34.476Z,9.5
2024-03-02T04:26:34.697Z,9.2
2024-03-02T04:36:34.946Z,9
2024-03-02T04:46:35.198Z,8.7
2024-03-02T04:56:35.302Z,8.5
2024-03-02T05:06:35.538Z,8.3
2024-03-02T05:16:35.693Z,8.4
2024-03-02T05:26:35.889Z,8.4
2024-03-02T05:36:36.137Z,8.3
2024-03-02T05:46:37.378Z,8
2024-03-02T06:06:36.723Z,7.5
2024-03-02T06:16:36.915Z,7.3
2024-03-02T06:26:37.121Z,7.3
2024-03-02T06:36:37.320Z,7.1
2024-03-02T06:56:37.712Z,7.2
2024-03-02T07:06:37.946Z,7.5
2024-03-02T07:16:38.130Z,7.7
2024-03-02T07:36:38.593Z,8.2
2024-03-02T07:46:38.736Z,8.2
2024-03-02T07:56:38.988Z,8.3
2024-03-02T08:06:39.178Z,8.5
2024-03-02T08:16:39.360Z,8.9
2024-03-02T08:26:39.552Z,9.3
2024-03-02T08:36:39.823Z,9.6
2024-03-02T08:46:39.941Z,9.7
2024-03-02T08:56:40.217Z,10.1
2024-03-02T09:06:40.420Z,10.2
2024-03-02T09:16:40.535Z,10.3
2024-03-02T09:26:40.852Z,10.7
2024-03-02T09:36:40.959Z,10.8
2024-03-02T09:46:41.222Z,10.9
2024-03-02T09:56:41.392Z,11.2
2024-03-02T10:06:41.576Z,11.4
2024-03-02T10:16:41.761Z,11.5
2024-03-02T10:26:41.983Z,11.9
2024-03-02T10:36:42.184Z,11.9
2024-03-02T10:46:42.375Z,12.1
2024-03-02T10:56:42.584Z,12.5
2024-03-02T11:06:42.744Z,12.6
2024-03-02T11:16:42.966Z,12.9
2024-03-02T11:26:43.138Z,13
2024-03-02T11:36:43.370Z,13.1
2024-03-02T11:46:43.567Z,13.4
2024-03-02T11:56:43.739Z,14
2024-03-02T12:06:43.941Z,14.2
2024-03-02T12:16:44.148Z,14.7
2024-03-02T12:26:44.348Z,14.4
2024-03-02T12:36:44.611Z,14.9
2024-03-02T12:46:44.777Z,15.5
2024-03-02T12:56:44.924Z,14.6
2024-03-02T13:06:45.146Z,14.9
2024-03-02T13:16:47.235Z,15.1
2024-03-02T13:26:45.538Z,14.7
2024-03-02T13:36:45.728Z,14.7
2024-03-02T13:46:45.911Z,14.4
2024-03-02T13:56:46.127Z,14.1
2024-03-02T14:06:46.362Z,14.2
2024-03-02T14:16:46.538Z,14.4
2024-03-02T14:26:46.753Z,14.3
2024-03-02T14:36:46.905Z,14.1
2024-03-02T14:46:47.105Z,14.1
2024-03-02T14:56:47.327Z,14.3
2024-03-02T15:06:47.511Z,14.2
2024-03-02T15:16:47.726Z,14.2
2024-03-02T15:26:47.902Z,14.3
2024-03-02T15:36:48.121Z,14.4
2024-03-02T15:46:48.297Z,14.4
2024-03-02T15:56:48.551Z,14.3
2024-03-02T16:06:48.712Z,14.1
2024-03-02T16:16:48.946Z,14.1
2024-03-02T16:26:49.164Z,14
2024-03-02T16:36:49.320Z,13.8
2024-03-02T16:46:49.496Z,13.6
2024-03-02T16:56:49.710Z,13.7
2024-03-02T17:06:49.881Z,13.7
2024-03-02T17:16:50.076Z,13.5
2024-03-02T17:26:50.296Z,13.4
2024-03-02T17:36:50.567Z,13.4
2024-03-02T17:46:50.746Z,13.3
2024-03-02T17:56:50.941Z,13.2
2024-03-02T18:06:51.138Z,13.6
2024-03-02T18:16:51.281Z,13.5
2024-03-02T18:26:51.627Z,13.4
2024-03-02T18:36:51.840Z,13.5
2024-03-02T18:46:51.925Z,13.3
2024-03-02T18:56:52.121Z,13.1
2024-03-02T19:06:52.393Z,13.4
2024-03-02T19:16:52.464Z,13.5
2024-03-02T19:26:52.658Z,13.2
2024-03-02T19:36:52.864Z,12.9
2024-03-02T19:46:53.062Z,12.9
2024-03-02T19:56:53.315Z,12.8
2024-03-02T20:06:53.527Z,12.7
2024-03-02T20:16:53.664Z,12.7
2024-03-02T20:26:53.944Z,12.6
2024-03-02T20:36:54.146Z,12.6
2024-03-02T20:46:54.266Z,12.4
2024-03-02T20:56:54.467Z,12.3
2024-03-02T21:06:54.684Z,12.2
2024-03-02T21:16:54.874Z,12.1
2024-03-02T21:26:55.056Z,11.9
2024-03-02T21:46:55.456Z,11.4
2024-03-02T21:56:55.653Z,11.3
2024-03-02T22:06:55.940Z,11.4
2024-03-02T22:16:56.083Z,11.4
2024-03-02T22:26:56.260Z,11.3
2024-03-02T22:36:56.530Z,11
2024-03-02T22:46:56.682Z,10.8
2024-03-02T22:56:56.855Z,10.7
2024-03-02T23:06:57.167Z,10.5
2024-03-02T23:16:57.251Z,10.3
2024-03-02T23:26:57.478Z,10.2
2024-03-02T23:36:57.674Z,10
2024-03-02T23:46:57.882Z,10
2024-03-02T23:56:58.080Z,10
